createdAt,value
2023-01-23T00:00:09.497Z,16.13
2023-01-23T00:02:40.375Z,19.55
2023-01-23T00:05:09.231Z,19.65
2023-01-23T00:07:37.609Z,18.67
2023-01-23T00:10:06.336Z,19.10
2023-01-23T00:12:34.717Z,21.55
2023-01-23T00:15:06.594Z,19.35
2023-01-23T00:17:35.155Z,17.10
2023-01-23T00:20:04.479Z,18.67
2023-01-23T00:22:32.806Z,21.17
2023-01-23T00:25:01.536Z,21.98
2023-01-23T00:27:29.938Z,20.55
2023-01-23T00:29:59.797Z,20.55
2023-01-23T00:32:29.916Z,20.92
2023-01-23T00:34:58.354Z,19.05
2023-01-23T00:37:26.876Z,20.77
2023-01-23T00:39:55.273Z,16.33
2023-01-23T00:42:23.675Z,16.50
2023-01-23T00:44:52.149Z,19.33
2023-01-23T00:47:20.559Z,18.75
2023-01-23T00:49:53.879Z,17.20
2023-01-23T00:52:22.372Z,19.60
2023-01-23T00:54:50.934Z,22.33
2023-01-23T00:57:19.677Z,19.77
2023-01-23T00:59:48.108Z,22.40
2023-01-23T01:02:16.570Z,21.15
2023-01-23T01:04:44.987Z,22.13
2023-01-23T01:07:14.761Z,19.63
2023-01-23T01:09:43.180Z,17.88
2023-01-23T01:12:11.524Z,17.92
2023-01-23T01:14:40.003Z,19.63
2023-01-23T01:17:08.766Z,19.77
2023-01-23T01:19:37.320Z,20.58
2023-01-23T01:22:05.737Z,15.23
2023-01-23T01:24:35.569Z,17.30
2023-01-23T01:27:03.973Z,16.02
2023-01-23T01:29:32.383Z,17.75
2023-01-23T01:32:00.809Z,19.10
2023-01-23T01:34:29.406Z,20.27
2023-01-23T01:37:25.162Z,19.85
2023-01-23T01:43:38.100Z,21.90
2023-01-23T01:46:09.114Z,19.67
2023-01-23T01:48:40.189Z,24.15
2023-01-23T01:51:13.567Z,20.80
2023-01-23T01:53:42.649Z,19.00
2023-01-23T01:56:13.463Z,20.13
2023-01-23T01:58:45.229Z,16.70
2023-01-23T02:01:13.942Z,18.38
2023-01-23T02:03:42.949Z,20.77
2023-01-23T02:06:11.365Z,23.40
2023-01-23T02:08:44.853Z,19.60
2023-01-23T02:11:15.169Z,19.52
2023-01-23T02:13:46.029Z,19.67
2023-01-23T02:16:15.765Z,23.75
2023-01-23T02:18:47.355Z,20.38
2023-01-23T02:21:17.590Z,24.20
2023-01-23T02:23:53.114Z,23.45
2023-01-23T02:26:29.657Z,22.83
2023-01-23T02:28:59.288Z,22.02
2023-01-23T02:31:33.014Z,23.30
2023-01-23T02:34:01.913Z,22.38
2023-01-23T02:36:31.080Z,21.15
2023-01-23T02:39:04.642Z,22.40
2023-01-23T02:41:35.439Z,21.83
2023-01-23T02:44:05.087Z,21.98
2023-01-23T02:46:33.938Z,22.02
2023-01-23T02:49:02.696Z,21.55
2023-01-23T02:51:31.338Z,19.10
2023-01-23T02:53:59.786Z,22.73
2023-01-23T02:56:28.179Z,19.48
2023-01-23T02:59:15.918Z,20.70
2023-01-23T03:01:44.418Z,20.52
2023-01-23T03:04:12.870Z,24.08
2023-01-23T03:06:41.485Z,20.33
2023-01-23T03:09:11.156Z,24.38
2023-01-23T03:11:41.406Z,23.20
2023-01-23T03:14:13.284Z,24.02
2023-01-23T03:16:42.865Z,20.83
2023-01-23T03:19:11.871Z,21.38
2023-01-23T03:21:42.166Z,18.55
2023-01-23T03:24:12.013Z,20.45
2023-01-23T03:26:41.911Z,22.50
2023-01-23T03:29:33.886Z,25.55
2023-01-23T03:32:02.448Z,28.10
2023-01-23T03:38:15.964Z,23.42
2023-01-23T03:41:02.231Z,27.33
2023-01-23T03:43:33.106Z,22.40
2023-01-23T03:46:04.348Z,23.77
2023-01-23T03:48:33.613Z,20.35
2023-01-23T03:51:02.038Z,22.58
2023-01-23T03:53:55.229Z,21.48
2023-01-23T03:56:23.638Z,20.38
2023-01-23T03:58:52.732Z,23.58
2023-01-23T04:01:24.183Z,22.77
2023-01-23T04:03:53.754Z,23.65
2023-01-23T04:06:23.645Z,22.30
2023-01-23T04:08:52.238Z,29.77
2023-01-23T04:11:20.996Z,28.27
2023-01-23T04:13:49.505Z,27.55
2023-01-23T04:16:18.040Z,31.10
2023-01-23T04:18:48.864Z,31.98
2023-01-23T04:21:17.384Z,34.17
2023-01-23T04:23:46.187Z,42.70
2023-01-23T04:26:14.977Z,36.80
2023-01-23T04:28:43.617Z,39.30
2023-01-23T04:31:13.254Z,31.38
2023-01-23T04:33:41.835Z,35.42
2023-01-23T04:36:12.423Z,26.83
2023-01-23T04:38:41.344Z,31.40
2023-01-23T04:41:35.652Z,31.65
2023-01-23T04:44:21.999Z,30.27
2023-01-23T04:47:16.318Z,32.50
2023-01-23T04:49:45.933Z,27.67
2023-01-23T04:52:15.596Z,25.63
2023-01-23T04:54:53.192Z,31.40
2023-01-23T04:57:21.839Z,25.92
2023-01-23T04:59:55.273Z,28.08
2023-01-23T05:02:24.101Z,25.42
2023-01-23T05:04:52.553Z,29.70
2023-01-23T05:07:22.516Z,22.67
2023-01-23T05:10:05.870Z,24.58
2023-01-23T05:12:34.520Z,28.15
2023-01-23T05:15:05.055Z,26.95
2023-01-23T05:17:37.321Z,28.60
2023-01-23T05:20:06.521Z,27.27
2023-01-23T05:22:36.263Z,26.45
2023-01-23T05:25:05.177Z,27.40
2023-01-23T05:27:33.684Z,33.20
2023-01-23T05:30:02.237Z,37.70
2023-01-23T05:32:36.399Z,27.88
2023-01-23T05:35:40.147Z,28.42
2023-01-23T05:38:35.137Z,56.08
2023-01-23T05:41:06.408Z,33.42
2023-01-23T05:44:13.245Z,26.88
2023-01-23T05:46:51.642Z,28.65
2023-01-23T05:49:20.411Z,44.30
2023-01-23T05:51:49.943Z,33.33
2023-01-23T05:57:40.660Z,36.38
2023-01-23T06:00:41.007Z,36.80
2023-01-23T06:03:28.341Z,34.53
2023-01-23T06:06:08.632Z,24.98
2023-01-23T06:08:36.992Z,34.08
2023-01-23T06:11:05.463Z,32.83
2023-01-23T06:13:35.369Z,39.35
2023-01-23T06:16:04.319Z,29.88
2023-01-23T06:18:32.850Z,39.65
2023-01-23T06:21:02.023Z,34.47
2023-01-23T06:23:30.828Z,40.60
2023-01-23T06:26:01.996Z,39.25
2023-01-23T06:28:31.265Z,40.92
2023-01-23T06:31:04.062Z,38.13
2023-01-23T06:33:44.735Z,38.00
2023-01-23T06:36:14.318Z,47.13
2023-01-23T06:38:42.796Z,44.33
2023-01-23T06:41:13.702Z,42.15
2023-01-23T06:43:49.933Z,55.33
2023-01-23T06:46:24.923Z,43.63
2023-01-23T06:48:55.051Z,40.90
2023-01-23T06:51:23.524Z,38.60
2023-01-23T06:57:13.668Z,37.17
2023-01-23T06:59:42.445Z,36.33
2023-01-23T07:02:14.415Z,39.15
2023-01-23T07:04:47.917Z,40.47
2023-01-23T07:07:16.487Z,42.35
2023-01-23T07:09:45.821Z,32.65
2023-01-23T07:12:23.152Z,31.27
2023-01-23T07:18:16.833Z,37.15
2023-01-23T07:21:10.874Z,33.22
2023-01-23T07:23:40.332Z,36.40
2023-01-23T07:26:09.631Z,35.15
2023-01-23T07:28:38.045Z,48.28
2023-01-23T07:31:06.714Z,42.88
2023-01-23T07:33:36.691Z,45.30
2023-01-23T07:36:06.993Z,42.83
2023-01-23T07:38:35.919Z,44.80
2023-01-23T07:41:04.236Z,35.67
2023-01-23T07:43:32.563Z,45.20
2023-01-23T07:46:01.083Z,38.80
2023-01-23T07:48:29.673Z,38.30
2023-01-23T07:51:03.071Z,35.38
2023-01-23T07:53:31.475Z,34.38
2023-01-23T07:55:59.904Z,34.92
2023-01-23T07:58:28.260Z,34.67
2023-01-23T08:00:56.682Z,37.92
2023-01-23T08:03:28.956Z,42.13
2023-01-23T08:05:59.746Z,33.38
2023-01-23T08:08:28.057Z,35.45
2023-01-23T08:14:13.696Z,39.25
2023-01-23T08:16:42.186Z,38.58
2023-01-23T08:19:10.688Z,35.75
2023-01-23T08:21:40.421Z,38.83
2023-01-23T08:24:09.145Z,31.30
2023-01-23T08:26:37.601Z,30.15
2023-01-23T08:29:05.954Z,31.70
2023-01-23T08:31:34.403Z,34.53
2023-01-23T08:34:03.261Z,33.15
2023-01-23T08:36:31.755Z,32.72
2023-01-23T08:39:01.721Z,29.45
2023-01-23T08:41:30.230Z,29.30
2023-01-23T08:44:01.588Z,27.67
2023-01-23T08:46:29.990Z,33.60
2023-01-23T08:48:58.563Z,27.42
2023-01-23T08:51:27.793Z,28.50
2023-01-23T08:53:56.318Z,30.35
2023-01-23T08:56:26.021Z,26.55
2023-01-23T08:58:54.741Z,25.83
2023-01-23T09:01:25.524Z,28.45
2023-01-23T09:03:53.893Z,29.52
2023-01-23T09:10:06.282Z,28.08
2023-01-23T09:12:36.024Z,36.50
2023-01-23T09:15:04.378Z,29.30
2023-01-23T09:17:32.772Z,32.03
2023-01-23T09:20:01.476Z,30.73
2023-01-23T09:22:30.032Z,28.88
2023-01-23T09:24:58.378Z,25.58
2023-01-23T09:27:26.912Z,33.30
2023-01-23T09:29:56.761Z,35.53
2023-01-23T09:32:25.148Z,40.17
2023-01-23T09:34:54.998Z,33.50
2023-01-23T09:38:00.855Z,33.10
2023-01-23T09:40:34.079Z,27.58
2023-01-23T09:43:04.566Z,30.40
2023-01-23T09:45:34.883Z,30.92
2023-01-23T09:48:09.389Z,25.13
2023-01-23T09:50:39.382Z,30.30
2023-01-23T09:53:10.389Z,35.53
2023-01-23T09:55:42.047Z,34.35
2023-01-23T09:58:15.191Z,31.73
2023-01-23T10:00:45.295Z,29.48
2023-01-23T10:03:15.451Z,25.65
2023-01-23T10:05:45.812Z,23.65
2023-01-23T10:08:18.922Z,26.70
2023-01-23T10:14:41.233Z,28.48
2023-01-23T10:17:15.386Z,20.58
2023-01-23T10:19:49.123Z,28.48
2023-01-23T10:22:27.257Z,24.65
2023-01-23T10:24:56.575Z,25.55
2023-01-23T10:27:25.743Z,27.88
2023-01-23T10:29:57.992Z,17.33
2023-01-23T10:32:28.638Z,31.67
2023-01-23T10:35:02.013Z,25.45
2023-01-23T10:37:42.651Z,24.20
2023-01-23T10:40:14.202Z,17.58
2023-01-23T10:42:42.954Z,19.58
2023-01-23T10:48:43.712Z,21.58
2023-01-23T10:51:35.193Z,21.13
2023-01-23T10:54:08.846Z,23.65
2023-01-23T10:56:38.705Z,31.33
2023-01-23T10:59:08.091Z,22.80
2023-01-23T11:01:38.775Z,24.75
2023-01-23T11:04:16.255Z,27.75
2023-01-23T11:06:44.654Z,28.48
2023-01-23T11:09:21.277Z,27.77
2023-01-23T11:12:01.102Z,25.92
2023-01-23T11:14:29.503Z,19.08
2023-01-23T11:17:04.993Z,25.05
2023-01-23T11:19:34.876Z,21.38
2023-01-23T11:22:04.206Z,27.55
2023-01-23T11:24:40.220Z,27.77
2023-01-23T11:27:19.275Z,24.80
2023-01-23T11:30:00.372Z,22.65
2023-01-23T11:32:30.912Z,24.75
2023-01-23T11:35:06.792Z,23.80
2023-01-23T11:37:38.916Z,26.88
2023-01-23T11:40:09.249Z,21.85
2023-01-23T11:42:40.184Z,29.25
2023-01-23T11:45:14.048Z,24.88
2023-01-23T11:47:58.939Z,21.35
2023-01-23T11:50:49.889Z,22.48
2023-01-23T11:53:33.460Z,24.83
2023-01-23T11:56:21.247Z,24.67
2023-01-23T11:58:59.437Z,27.92
2023-01-23T12:01:31.266Z,23.10
2023-01-23T12:04:24.873Z,22.35
2023-01-23T12:06:59.855Z,24.33
2023-01-23T12:09:33.456Z,26.45
2023-01-23T12:12:09.960Z,29.85
2023-01-23T12:14:44.606Z,23.13
2023-01-23T12:17:20.151Z,21.95
2023-01-23T12:19:57.093Z,23.17
2023-01-23T12:22:50.757Z,21.80
2023-01-23T12:25:31.921Z,23.08
2023-01-23T12:28:06.104Z,21.23
2023-01-23T12:30:40.688Z,23.40
2023-01-23T12:33:17.969Z,21.73
2023-01-23T12:35:49.628Z,22.35
2023-01-23T12:38:27.421Z,21.70
2023-01-23T12:41:00.660Z,20.40
2023-01-23T12:43:34.655Z,22.83
2023-01-23T12:46:06.506Z,20.52
2023-01-23T12:48:38.289Z,17.77
2023-01-23T12:51:10.559Z,54.45
2023-01-23T12:53:40.389Z,87.47
2023-01-23T12:56:12.284Z,37.60
2023-01-23T12:58:42.674Z,24.35
2023-01-23T13:01:17.638Z,38.83
2023-01-23T13:03:55.144Z,37.38
2023-01-23T13:06:33.132Z,27.20
2023-01-23T13:09:17.264Z,28.58
2023-01-23T13:11:58.765Z,38.50
2023-01-23T13:15:00.634Z,48.70
2023-01-23T13:17:33.067Z,98.40
2023-01-23T13:20:30.255Z,47.30
2023-01-23T13:23:20.115Z,65.93
2023-01-23T13:25:48.850Z,92.80
2023-01-23T13:28:44.481Z,29.60
2023-01-23T13:31:27.055Z,19.60
2023-01-23T13:34:06.642Z,19.38
2023-01-23T13:36:42.722Z,18.40
2023-01-23T13:39:25.916Z,15.80
2023-01-23T13:42:14.940Z,14.75
2023-01-23T13:44:58.211Z,16.08
2023-01-23T14:26:00.502Z,19.15
2023-01-23T14:28:28.912Z,21.45
2023-01-23T14:31:01.505Z,19.92
2023-01-23T14:33:30.420Z,19.55
2023-01-23T14:35:58.901Z,20.40
2023-01-23T14:38:34.327Z,23.73
2023-01-23T14:41:06.942Z,21.10
2023-01-23T14:43:37.242Z,18.77
2023-01-23T14:46:07.329Z,20.45
2023-01-23T14:48:37.129Z,21.27
2023-01-23T14:51:10.208Z,20.48
2023-01-23T14:53:42.573Z,18.85
2023-01-23T14:56:13.319Z,20.60
2023-01-23T14:58:41.921Z,21.25
2023-01-23T15:01:12.456Z,20.30
2023-01-23T15:03:42.604Z,22.40
2023-01-23T15:06:15.156Z,22.35
2023-01-23T15:08:43.827Z,49.75
2023-01-23T15:11:13.678Z,41.85
2023-01-23T15:13:51.182Z,90.40
2023-01-23T15:16:21.118Z,91.15
2023-01-23T15:18:57.833Z,48.80
2023-01-23T15:21:33.960Z,25.80
2023-01-23T15:24:21.142Z,23.83
2023-01-23T15:27:03.493Z,23.98
2023-01-23T15:29:32.605Z,26.50
2023-01-23T15:32:01.444Z,31.90
2023-01-23T15:34:31.411Z,23.58
2023-01-23T15:37:01.677Z,22.08
2023-01-23T15:39:31.097Z,23.83
2023-01-23T15:42:02.240Z,26.33
2023-01-23T15:44:31.804Z,25.20
2023-01-23T15:47:25.689Z,27.45
2023-01-23T15:50:19.207Z,26.38
2023-01-23T15:52:48.413Z,25.23
2023-01-23T15:55:17.179Z,22.02
2023-01-23T15:57:46.942Z,24.95
2023-01-23T16:00:16.641Z,25.98
2023-01-23T16:02:55.515Z,28.95
2023-01-23T16:05:54.333Z,28.80
2023-01-23T16:08:23.265Z,25.20
2023-01-23T16:14:12.746Z,21.65
2023-01-23T16:16:41.265Z,20.25
2023-01-23T16:19:09.553Z,20.50
2023-01-23T16:21:37.962Z,20.38
2023-01-23T16:24:06.791Z,23.20
2023-01-23T16:26:35.572Z,25.23
2023-01-23T16:29:13.377Z,24.10
2023-01-23T16:31:43.705Z,24.08
2023-01-23T16:34:12.022Z,21.73
2023-01-23T16:36:40.311Z,23.60
2023-01-23T16:39:11.356Z,24.65
2023-01-23T16:41:39.717Z,28.10
2023-01-23T16:44:10.841Z,22.75
2023-01-23T16:46:39.204Z,27.83
2023-01-23T16:49:08.828Z,22.10
2023-01-23T16:51:37.473Z,22.70
2023-01-23T16:54:17.703Z,20.52
2023-01-23T16:56:47.948Z,26.08
2023-01-23T16:59:19.294Z,28.63
2023-01-23T17:01:49.209Z,36.38
2023-01-23T17:04:20.110Z,27.45
2023-01-23T17:06:48.703Z,23.63
2023-01-23T17:09:17.479Z,22.23
2023-01-23T17:11:46.883Z,23.25
2023-01-23T17:14:16.747Z,25.60
2023-01-23T17:16:46.040Z,23.50
2023-01-23T17:19:45.137Z,25.00
2023-01-23T17:22:41.017Z,36.00
2023-01-23T17:25:14.707Z,26.42
2023-01-23T17:27:45.741Z,33.17
2023-01-23T17:30:16.769Z,36.55
2023-01-23T17:32:45.495Z,34.67
2023-01-23T17:35:20.223Z,32.28
2023-01-23T17:37:50.426Z,24.65
2023-01-23T17:40:19.132Z,27.23
2023-01-23T17:42:47.557Z,23.75
2023-01-23T17:45:16.327Z,22.55
2023-01-23T17:47:45.077Z,26.95
2023-01-23T17:50:20.225Z,30.27
2023-01-23T17:52:48.812Z,29.90
2023-01-23T17:55:17.614Z,30.02
2023-01-23T17:57:46.176Z,24.27
2023-01-23T18:00:15.835Z,27.30
2023-01-23T18:02:45.012Z,27.45
2023-01-23T18:05:14.438Z,24.35
2023-01-23T18:07:53.338Z,23.70
2023-01-23T18:10:24.502Z,27.35
2023-01-23T18:13:03.890Z,22.45
2023-01-23T18:15:33.578Z,22.80
2023-01-23T18:18:09.943Z,21.58
2023-01-23T18:20:38.539Z,25.58
2023-01-23T18:23:12.728Z,25.02
2023-01-23T18:25:43.284Z,27.25
2023-01-23T18:28:16.644Z,24.00
2023-01-23T18:30:48.357Z,23.25
2023-01-23T18:33:32.952Z,21.42
2023-01-23T18:36:15.839Z,22.95
2023-01-23T18:42:17.295Z,21.75
2023-01-23T18:44:48.620Z,22.85
2023-01-23T18:47:17.160Z,23.98
2023-01-23T18:49:46.154Z,29.75
2023-01-23T18:52:18.127Z,26.70
2023-01-23T18:54:51.167Z,26.02
2023-01-23T18:57:29.001Z,31.13
2023-01-23T19:03:47.026Z,24.83
2023-01-23T19:06:20.086Z,23.05
2023-01-23T19:08:48.886Z,27.38
2023-01-23T19:11:22.976Z,22.23
2023-01-23T19:14:01.053Z,26.20
2023-01-23T19:16:31.466Z,24.15
2023-01-23T19:19:15.214Z,25.65
2023-01-23T19:21:44.669Z,22.85
2023-01-23T19:24:13.484Z,23.38
2023-01-23T19:26:42.996Z,28.92
2023-01-23T19:29:22.899Z,30.30
2023-01-23T19:32:05.069Z,29.33
2023-01-23T19:34:34.518Z,31.92
2023-01-23T19:37:03.118Z,28.70
2023-01-23T19:39:31.752Z,25.55
2023-01-23T19:42:00.681Z,24.70
2023-01-23T19:44:33.739Z,25.50
2023-01-23T19:47:06.603Z,27.83
2023-01-23T19:49:35.145Z,23.73
2023-01-23T19:52:04.365Z,31.27
2023-01-23T19:54:32.688Z,37.28
2023-01-23T19:57:01.092Z,34.15
2023-01-23T19:59:29.320Z,31.25
2023-01-23T20:01:59.091Z,29.48
2023-01-23T20:04:27.501Z,49.33
2023-01-23T20:06:55.862Z,103.70
2023-01-23T20:09:24.555Z,102.82
2023-01-23T20:11:53.251Z,93.18
2023-01-23T20:14:22.706Z,48.78
2023-01-23T20:16:51.077Z,46.50
2023-01-23T20:19:20.821Z,43.25
2023-01-23T20:21:49.112Z,39.13
2023-01-23T20:24:17.571Z,29.42
2023-01-23T20:26:46.953Z,29.08
2023-01-23T20:29:18.027Z,34.33
2023-01-23T20:31:46.699Z,26.05
2023-01-23T20:34:15.177Z,25.25
2023-01-23T20:36:44.894Z,30.75
2023-01-23T20:39:13.892Z,30.25
2023-01-23T20:41:42.475Z,27.77
2023-01-23T20:44:10.832Z,28.13
2023-01-23T20:46:39.596Z,22.10
2023-01-23T20:49:07.882Z,27.75
2023-01-23T20:51:36.208Z,28.52
2023-01-23T20:54:06.203Z,26.45
2023-01-23T20:56:34.480Z,27.33
2023-01-23T20:59:23.422Z,25.73
2023-01-23T21:02:09.476Z,24.30
2023-01-23T21:04:39.702Z,26.42
2023-01-23T21:07:08.037Z,24.58
2023-01-23T21:09:37.692Z,30.23
2023-01-23T21:12:30.770Z,29.17
2023-01-23T21:15:00.369Z,31.02
2023-01-23T21:17:28.671Z,29.10
2023-01-23T21:19:57.012Z,24.92
2023-01-23T21:22:25.384Z,26.75
2023-01-23T21:24:55.125Z,25.48
2023-01-23T21:27:25.170Z,26.40
2023-01-23T21:29:54.213Z,22.60
2023-01-23T21:32:22.520Z,25.90
2023-01-23T21:34:51.505Z,28.25
2023-01-23T21:37:20.201Z,27.42
2023-01-23T21:39:48.687Z,26.10
2023-01-23T21:42:18.451Z,27.48
2023-01-23T21:44:46.955Z,26.55
2023-01-23T21:47:15.299Z,20.63
2023-01-23T21:49:43.831Z,25.42
2023-01-23T21:52:12.466Z,21.15
2023-01-23T21:54:42.619Z,21.08
2023-01-23T21:58:02.198Z,22.75
2023-01-23T22:00:56.507Z,24.58
2023-01-23T22:03:24.904Z,21.40
2023-01-23T22:05:53.318Z,23.13
2023-01-23T22:08:21.804Z,23.58
2023-01-23T22:10:50.231Z,29.63
2023-01-23T22:13:21.179Z,25.52
2023-01-23T22:15:49.574Z,32.55
2023-01-23T22:18:18.019Z,31.27
2023-01-23T22:20:46.401Z,23.90
2023-01-23T22:23:14.778Z,23.73
2023-01-23T22:25:43.356Z,27.15
2023-01-23T22:28:12.810Z,26.85
2023-01-23T22:30:42.589Z,26.10
2023-01-23T22:33:11.292Z,24.35
2023-01-23T22:35:40.180Z,22.85
2023-01-23T22:38:08.551Z,25.08
2023-01-23T22:40:37.048Z,26.05
2023-01-23T22:43:06.169Z,24.27
